sensor_id;sensor_type;location;lat;lon;timestamp;temperature;humidity
1137;DHT22;557;48.466;7.950;2022-12-10T00:01:05;1.70;99.90
1137;DHT22;557;48.466;7.950;2022-12-10T00:03:55;1.70;99.90
1137;DHT22;557;48.466;7.950;2022-12-10T00:06:42;1.80;99.90
1137;DHT22;557;48.466;7.950;2022-12-10T00:09:28;1.80;99.90
1137;DHT22;557;48.466;7.950;2022-12-10T00:12:13;1.70;99.90
1137;DHT22;557;48.466;7.950;2022-12-10T00:14:59;1.70;99.90
1137;DHT22;557;48.466;7.950;2022-12-10T00:17:45;1.80;99.90
1137;DHT22;557;48.466;7.950;2022-12-10T00:20:32;1.70;99.90
1137;DHT22;557;48.466;7.950;2022-12-10T00:23:20;1.60;99.90
1137;DHT22;557;48.466;7.950;2022-12-10T00:26:11;1.60;99.90
1137;DHT22;557;48.466;7.950;2022-12-10T00:28:59;1.60;99.90
1137;DHT22;557;48.466;7.950;2022-12-10T00:31:48;1.50;99.90
1137;DHT22;557;48.466;7.950;2022-12-10T00:34:34;1.50;99.90
1137;DHT22;557;48.466;7.950;2022-12-10T00:37:21;1.60;99.90
1137;DHT22;557;48.466;7.950;2022-12-10T00:40:08;1.60;99.90
1137;DHT22;557;48.466;7.950;2022-12-10T00:42:54;1.50;99.90
1137;DHT22;557;48.466;7.950;2022-12-10T00:45:40;1.50;99.90
1137;DHT22;557;48.466;7.950;2022-12-10T00:48:26;1.50;99.90
1137;DHT22;557;48.466;7.950;2022-12-10T00:51:13;1.50;99.90
1137;DHT22;557;48.466;7.950;2022-12-10T00:54:05;1.50;99.90
1137;DHT22;557;48.466;7.950;2022-12-10T00:56:51;1.50;99.90
1137;DHT22;557;48.466;7.950;2022-12-10T00:59:48;1.60;99.90
1137;DHT22;557;48.466;7.950;2022-12-10T01:02:37;1.70;99.90
1137;DHT22;557;48.466;7.950;2022-12-10T01:05:24;1.60;99.90
1137;DHT22;557;48.466;7.950;2022-12-10T01:08:22;1.70;99.90
1137;DHT22;557;48.466;7.950;2022-12-10T01:11:16;1.70;99.90
1137;DHT22;557;48.466;7.950;2022-12-10T01:14:02;1.80;99.90
1137;DHT22;557;48.466;7.950;2022-12-10T01:16:49;1.80;99.90
1137;DHT22;557;48.466;7.950;2022-12-10T01:19:38;1.80;99.90
1137;DHT22;557;48.466;7.950;2022-12-10T01:22:24;1.80;99.90
1137;DHT22;557;48.466;7.950;2022-12-10T01:25:10;1.80;99.90
1137;DHT22;557;48.466;7.950;2022-12-10T01:27:56;1.80;99.90
1137;DHT22;557;48.466;7.950;2022-12-10T01:30:42;1.80;99.90
1137;DHT22;557;48.466;7.950;2022-12-10T01:33:28;1.80;99.90
1137;DHT22;557;48.466;7.950;2022-12-10T01:36:16;1.90;99.90
1137;DHT22;557;48.466;7.950;2022-12-10T01:39:05;1.90;99.90
1137;DHT22;557;48.466;7.950;2022-12-10T01:41:53;1.80;99.90
1137;DHT22;557;48.466;7.950;2022-12-10T01:45:03;1.80;99.90
1137;DHT22;557;48.466;7.950;2022-12-10T01:47:55;1.80;99.90
1137;DHT22;557;48.466;7.950;2022-12-10T01:50:41;1.80;99.90
1137;DHT22;557;48.466;7.950;2022-12-10T01:53:27;1.80;99.90
1137;DHT22;557;48.466;7.950;2022-12-10T01:56:16;1.70;99.90
1137;DHT22;557;48.466;7.950;2022-12-10T01:59:04;1.80;99.90
1137;DHT22;557;48.466;7.950;2022-12-10T02:01:55;1.70;99.90
1137;DHT22;557;48.466;7.950;2022-12-10T02:04:50;1.70;99.90
1137;DHT22;557;48.466;7.950;2022-12-10T02:07:51;1.80;99.90
1137;DHT22;557;48.466;7.950;2022-12-10T02:10:46;1.90;99.90
1137;DHT22;557;48.466;7.950;2022-12-10T02:13:42;1.80;99.90
1137;DHT22;557;48.466;7.950;2022-12-10T02:16:33;1.80;99.90
1137;DHT22;557;48.466;7.950;2022-12-10T02:19:25;1.80;99.90
1137;DHT22;557;48.466;7.950;2022-12-10T02:22:20;1.80;99.90
1137;DHT22;557;48.466;7.950;2022-12-10T02:25:15;1.90;99.90
1137;DHT22;557;48.466;7.950;2022-12-10T02:28:06;1.90;99.90
1137;DHT22;557;48.466;7.950;2022-12-10T02:31:05;1.90;99.90
1137;DHT22;557;48.466;7.950;2022-12-10T02:33:59;1.80;99.90
1137;DHT22;557;48.466;7.950;2022-12-10T02:36:48;1.90;99.90
1137;DHT22;557;48.466;7.950;2022-12-10T02:39:38;1.90;99.90
1137;DHT22;557;48.466;7.950;2022-12-10T02:42:29;1.90;99.90
1137;DHT22;557;48.466;7.950;2022-12-10T02:45:17;2.00;99.90
1137;DHT22;557;48.466;7.950;2022-12-10T02:48:29;1.90;99.90
1137;DHT22;557;48.466;7.950;2022-12-10T02:51:14;1.70;99.90
1137;DHT22;557;48.466;7.950;2022-12-10T02:54:01;1.70;99.90
1137;DHT22;557;48.466;7.950;2022-12-10T02:56:54;1.80;99.90
1137;DHT22;557;48.466;7.950;2022-12-10T03:00:00;1.80;99.90
1137;DHT22;557;48.466;7.950;2022-12-10T03:06:31;1.80;99.90
1137;DHT22;557;48.466;7.950;2022-12-10T03:09:23;1.80;99.90
1137;DHT22;557;48.466;7.950;2022-12-10T03:12:19;1.80;99.90
1137;DHT22;557;48.466;7.950;2022-12-10T03:15:09;1.80;99.90
1137;DHT22;557;48.466;7.950;2022-12-10T03:17:55;1.90;99.90
1137;DHT22;557;48.466;7.950;2022-12-10T03:20:44;1.90;99.90
1137;DHT22;557;48.466;7.950;2022-12-10T03:23:33;2.00;99.90
1137;DHT22;557;48.466;7.950;2022-12-10T03:26:21;1.90;99.90
1137;DHT22;557;48.466;7.950;2022-12-10T03:29:12;1.90;99.90
1137;DHT22;557;48.466;7.950;2022-12-10T03:32:03;2.00;99.90
1137;DHT22;557;48.466;7.950;2022-12-10T03:34:51;2.00;99.90
1137;DHT22;557;48.466;7.950;2022-12-10T03:37:37;2.00;99.90
1137;DHT22;557;48.466;7.950;2022-12-10T03:40:24;2.10;99.90
1137;DHT22;557;48.466;7.950;2022-12-10T03:43:12;2.10;99.90
1137;DHT22;557;48.466;7.950;2022-12-10T03:49:00;2.10;99.90
1137;DHT22;557;48.466;7.950;2022-12-10T03:51:46;2.10;99.90
1137;DHT22;557;48.466;7.950;2022-12-10T03:54:31;2.10;99.90
1137;DHT22;557;48.466;7.950;2022-12-10T03:57:22;2.10;99.90
1137;DHT22;557;48.466;7.950;2022-12-10T04:00:09;2.20;99.90
1137;DHT22;557;48.466;7.950;2022-12-10T04:02:56;2.10;99.90
1137;DHT22;557;48.466;7.950;2022-12-10T04:05:48;2.10;99.90
1137;DHT22;557;48.466;7.950;2022-12-10T04:08:33;2.10;99.90
1137;DHT22;557;48.466;7.950;2022-12-10T04:11:19;2.10;99.90
1137;DHT22;557;48.466;7.950;2022-12-10T04:14:07;2.10;99.90
1137;DHT22;557;48.466;7.950;2022-12-10T04:17:10;2.10;99.90
1137;DHT22;557;48.466;7.950;2022-12-10T04:19:56;2.10;99.90
1137;DHT22;557;48.466;7.950;2022-12-10T04:22:41;2.20;99.90
1137;DHT22;557;48.466;7.950;2022-12-10T04:25:45;2.20;99.90
1137;DHT22;557;48.466;7.950;2022-12-10T04:28:49;2.20;99.90
1137;DHT22;557;48.466;7.950;2022-12-10T04:31:35;2.20;99.90
1137;DHT22;557;48.466;7.950;2022-12-10T04:34:21;2.20;99.90
1137;DHT22;557;48.466;7.950;2022-12-10T04:37:09;2.10;99.90
1137;DHT22;557;48.466;7.950;2022-12-10T04:39:56;2.10;99.90
1137;DHT22;557;48.466;7.950;2022-12-10T04:42:44;2.10;99.90
1137;DHT22;557;48.466;7.950;2022-12-10T04:45:29;2.10;99.90
1137;DHT22;557;48.466;7.950;2022-12-10T04:48:18;2.10;99.90
1137;DHT22;557;48.466;7.950;2022-12-10T04:51:04;2.00;99.90
1137;DHT22;557;48.466;7.950;2022-12-10T04:53:56;2.00;99.90
1137;DHT22;557;48.466;7.950;2022-12-10T04:56:44;2.10;99.90
1137;DHT22;557;48.466;7.950;2022-12-10T04:59:30;2.10;99.90
1137;DHT22;557;48.466;7.950;2022-12-10T05:02:19;2.20;99.90
1137;DHT22;557;48.466;7.950;2022-12-10T05:05:07;2.10;99.90
1137;DHT22;557;48.466;7.950;2022-12-10T05:07:52;2.20;99.90
1137;DHT22;557;48.466;7.950;2022-12-10T05:10:40;2.10;99.90
1137;DHT22;557;48.466;7.950;2022-12-10T05:13:31;2.10;99.90
1137;DHT22;557;48.466;7.950;2022-12-10T05:16:19;2.20;99.90
1137;DHT22;557;48.466;7.950;2022-12-10T05:19:05;2.10;99.90
1137;DHT22;557;48.466;7.950;2022-12-10T05:21:55;2.20;99.90
1137;DHT22;557;48.466;7.950;2022-12-10T05:24:59;2.20;99.90
1137;DHT22;557;48.466;7.950;2022-12-10T05:27:46;2.10;99.90
1137;DHT22;557;48.466;7.950;2022-12-10T05:30:36;2.10;99.90
1137;DHT22;557;48.466;7.950;2022-12-10T05:33:22;2.10;99.90
1137;DHT22;557;48.466;7.950;2022-12-10T05:36:12;2.10;99.90
1137;DHT22;557;48.466;7.950;2022-12-10T05:38:59;2.20;99.90
1137;DHT22;557;48.466;7.950;2022-12-10T05:41:49;2.10;99.90
1137;DHT22;557;48.466;7.950;2022-12-10T05:44:37;2.10;99.90
1137;DHT22;557;48.466;7.950;2022-12-10T05:47:23;2.10;99.90
1137;DHT22;557;48.466;7.950;2022-12-10T05:50:08;2.10;99.90
1137;DHT22;557;48.466;7.950;2022-12-10T05:52:54;2.10;99.90
1137;DHT22;557;48.466;7.950;2022-12-10T05:55:43;2.10;99.90
1137;DHT22;557;48.466;7.950;2022-12-10T05:58:29;2.10;99.90
1137;DHT22;557;48.466;7.950;2022-12-10T06:01:17;2.10;99.90
1137;DHT22;557;48.466;7.950;2022-12-10T06:04:04;2.10;99.90
1137;DHT22;557;48.466;7.950;2022-12-10T06:06:50;2.20;99.90
1137;DHT22;557;48.466;7.950;2022-12-10T06:09:35;2.10;99.90
1137;DHT22;557;48.466;7.950;2022-12-10T06:12:22;2.10;99.90
1137;DHT22;557;48.466;7.950;2022-12-10T06:15:12;2.10;99.90
1137;DHT22;557;48.466;7.950;2022-12-10T06:17:58;2.10;99.90
1137;DHT22;557;48.466;7.950;2022-12-10T06:20:44;2.10;99.90
1137;DHT22;557;48.466;7.950;2022-12-10T06:23:29;2.10;99.90
1137;DHT22;557;48.466;7.950;2022-12-10T06:26:16;2.20;99.90
1137;DHT22;557;48.466;7.950;2022-12-10T06:29:03;2.10;99.90
1137;DHT22;557;48.466;7.950;2022-12-10T06:31:55;2.10;99.90
1137;DHT22;557;48.466;7.950;2022-12-10T06:34:41;2.10;99.90
1137;DHT22;557;48.466;7.950;2022-12-10T06:37:29;2.10;99.90
1137;DHT22;557;48.466;7.950;2022-12-10T06:40:15;2.10;99.90
1137;DHT22;557;48.466;7.950;2022-12-10T06:43:01;2.10;99.90
1137;DHT22;557;48.466;7.950;2022-12-10T06:45:47;2.10;99.90
1137;DHT22;557;48.466;7.950;2022-12-10T06:48:34;2.20;99.90
1137;DHT22;557;48.466;7.950;2022-12-10T06:51:26;2.20;99.90
1137;DHT22;557;48.466;7.950;2022-12-10T06:54:14;2.10;99.90
1137;DHT22;557;48.466;7.950;2022-12-10T06:57:01;2.10;99.90
1137;DHT22;557;48.466;7.950;2022-12-10T06:59:47;2.10;99.90
1137;DHT22;557;48.466;7.950;2022-12-10T07:02:34;2.10;99.90
1137;DHT22;557;48.466;7.950;2022-12-10T07:05:19;2.10;99.90
1137;DHT22;557;48.466;7.950;2022-12-10T07:08:05;2.10;99.90
1137;DHT22;557;48.466;7.950;2022-12-10T07:10:50;2.20;99.90
1137;DHT22;557;48.466;7.950;2022-12-10T07:13:37;2.10;99.90
1137;DHT22;557;48.466;7.950;2022-12-10T07:16:27;2.10;99.90
1137;DHT22;557;48.466;7.950;2022-12-10T07:19:13;2.10;99.90
1137;DHT22;557;48.466;7.950;2022-12-10T07:21:59;2.10;99.90
1137;DHT22;557;48.466;7.950;2022-12-10T07:24:44;2.10;99.90
1137;DHT22;557;48.466;7.950;2022-12-10T07:27:30;2.10;99.90
1137;DHT22;557;48.466;7.950;2022-12-10T07:30:16;2.10;99.90
1137;DHT22;557;48.466;7.950;2022-12-10T07:33:02;2.10;99.90
1137;DHT22;557;48.466;7.950;2022-12-10T07:35:49;2.10;99.90
1137;DHT22;557;48.466;7.950;2022-12-10T07:38:38;2.10;99.90
1137;DHT22;557;48.466;7.950;2022-12-10T07:41:47;2.10;99.90
1137;DHT22;557;48.466;7.950;2022-12-10T07:44:34;2.00;99.90
1137;DHT22;557;48.466;7.950;2022-12-10T07:47:20;2.00;99.90
1137;DHT22;557;48.466;7.950;2022-12-10T07:50:06;2.00;99.90
1137;DHT22;557;48.466;7.950;2022-12-10T07:52:53;2.00;99.90
1137;DHT22;557;48.466;7.950;2022-12-10T07:55:39;1.90;99.90
1137;DHT22;557;48.466;7.950;2022-12-10T07:58:31;1.90;99.90
1137;DHT22;557;48.466;7.950;2022-12-10T08:01:27;1.90;99.90
1137;DHT22;557;48.466;7.950;2022-12-10T08:04:13;1.80;99.90
1137;DHT22;557;48.466;7.950;2022-12-10T08:07:10;1.80;99.90
1137;DHT22;557;48.466;7.950;2022-12-10T08:09:57;1.90;99.90
1137;DHT22;557;48.466;7.950;2022-12-10T08:12:43;1.90;99.90
1137;DHT22;557;48.466;7.950;2022-12-10T08:15:30;1.90;99.90
1137;DHT22;557;48.466;7.950;2022-12-10T08:18:17;1.90;99.90
1137;DHT22;557;48.466;7.950;2022-12-10T08:21:04;1.90;99.90
1137;DHT22;557;48.466;7.950;2022-12-10T08:24:10;1.90;99.90
1137;DHT22;557;48.466;7.950;2022-12-10T08:26:57;1.90;99.90
1137;DHT22;557;48.466;7.950;2022-12-10T08:29:43;1.90;99.90
1137;DHT22;557;48.466;7.950;2022-12-10T08:32:28;1.80;99.90
1137;DHT22;557;48.466;7.950;2022-12-10T08:35:17;1.80;99.90
1137;DHT22;557;48.466;7.950;2022-12-10T08:38:02;1.90;99.90
1137;DHT22;557;48.466;7.950;2022-12-10T08:40:48;1.90;99.90
1137;DHT22;557;48.466;7.950;2022-12-10T08:43:35;1.90;99.90
1137;DHT22;557;48.466;7.950;2022-12-10T08:46:21;1.80;99.90
1137;DHT22;557;48.466;7.950;2022-12-10T08:49:07;1.80;99.90
1137;DHT22;557;48.466;7.950;2022-12-10T08:51:57;1.80;99.90
1137;DHT22;557;48.466;7.950;2022-12-10T08:54:43;1.80;99.90
1137;DHT22;557;48.466;7.950;2022-12-10T08:57:29;1.90;99.90
1137;DHT22;557;48.466;7.950;2022-12-10T09:00:16;1.90;99.90
1137;DHT22;557;48.466;7.950;2022-12-10T09:03:03;1.90;99.90
1137;DHT22;557;48.466;7.950;2022-12-10T09:05:51;2.00;99.90
1137;DHT22;557;48.466;7.950;2022-12-10T09:08:40;2.00;99.90
1137;DHT22;557;48.466;7.950;2022-12-10T09:11:28;2.00;99.90
1137;DHT22;557;48.466;7.950;2022-12-10T09:14:14;2.00;99.90
1137;DHT22;557;48.466;7.950;2022-12-10T09:17:03;2.00;99.90
1137;DHT22;557;48.466;7.950;2022-12-10T09:19:53;1.90;99.90
1137;DHT22;557;48.466;7.950;2022-12-10T09:22:39;1.90;99.90
1137;DHT22;557;48.466;7.950;2022-12-10T09:25:24;1.90;99.90
1137;DHT22;557;48.466;7.950;2022-12-10T09:28:10;2.00;99.90
1137;DHT22;557;48.466;7.950;2022-12-10T09:30:56;2.00;99.90
1137;DHT22;557;48.466;7.950;2022-12-10T09:33:45;2.00;99.90
1137;DHT22;557;48.466;7.950;2022-12-10T09:36:31;2.10;99.90
1137;DHT22;557;48.466;7.950;2022-12-10T09:39:16;2.10;99.90
1137;DHT22;557;48.466;7.950;2022-12-10T09:42:27;2.20;99.90
1137;DHT22;557;48.466;7.950;2022-12-10T09:45:19;2.10;99.90
1137;DHT22;557;48.466;7.950;2022-12-10T09:48:17;2.10;99.90
1137;DHT22;557;48.466;7.950;2022-12-10T09:51:09;2.10;99.90
1137;DHT22;557;48.466;7.950;2022-12-10T09:53:57;2.10;99.90
1137;DHT22;557;48.466;7.950;2022-12-10T09:56:44;2.00;99.90
1137;DHT22;557;48.466;7.950;2022-12-10T09:59:32;2.10;99.90
1137;DHT22;557;48.466;7.950;2022-12-10T10:02:22;2.10;99.90
1137;DHT22;557;48.466;7.950;2022-12-10T10:05:15;2.10;99.90
1137;DHT22;557;48.466;7.950;2022-12-10T10:08:06;2.10;99.90
1137;DHT22;557;48.466;7.950;2022-12-10T10:10:52;2.10;99.90
1137;DHT22;557;48.466;7.950;2022-12-10T10:13:40;2.10;99.90
1137;DHT22;557;48.466;7.950;2022-12-10T10:16:30;2.20;99.90
1137;DHT22;557;48.466;7.950;2022-12-10T10:19:20;2.20;99.90
1137;DHT22;557;48.466;7.950;2022-12-10T10:22:09;2.20;99.90
1137;DHT22;557;48.466;7.950;2022-12-10T10:24:56;2.10;99.90
1137;DHT22;557;48.466;7.950;2022-12-10T10:27:46;2.10;99.90
1137;DHT22;557;48.466;7.950;2022-12-10T10:30:31;2.10;99.90
1137;DHT22;557;48.466;7.950;2022-12-10T10:33:18;2.10;99.90
1137;DHT22;557;48.466;7.950;2022-12-10T10:36:04;2.10;99.90
1137;DHT22;557;48.466;7.950;2022-12-10T10:38:49;2.10;99.90
1137;DHT22;557;48.466;7.950;2022-12-10T10:41:37;2.10;99.90
1137;DHT22;557;48.466;7.950;2022-12-10T10:44:26;2.10;99.90
1137;DHT22;557;48.466;7.950;2022-12-10T10:47:26;2.10;99.90
1137;DHT22;557;48.466;7.950;2022-12-10T10:50:23;2.10;99.90
1137;DHT22;557;48.466;7.950;2022-12-10T10:53:30;2.10;99.90
1137;DHT22;557;48.466;7.950;2022-12-10T10:56:17;2.00;99.90
1137;DHT22;557;48.466;7.950;2022-12-10T10:59:15;2.00;99.90
1137;DHT22;557;48.466;7.950;2022-12-10T11:02:17;2.00;99.90
1137;DHT22;557;48.466;7.950;2022-12-10T11:05:07;2.00;99.90
1137;DHT22;557;48.466;7.950;2022-12-10T11:07:57;2.00;99.90
1137;DHT22;557;48.466;7.950;2022-12-10T11:10:47;2.10;99.90
1137;DHT22;557;48.466;7.950;2022-12-10T11:13:35;2.10;99.90
1137;DHT22;557;48.466;7.950;2022-12-10T11:16:25;2.10;99.90
1137;DHT22;557;48.466;7.950;2022-12-10T11:19:21;2.10;99.90
1137;DHT22;557;48.466;7.950;2022-12-10T11:22:17;2.10;99.90
1137;DHT22;557;48.466;7.950;2022-12-10T11:25:05;2.20;99.90
1137;DHT22;557;48.466;7.950;2022-12-10T11:27:53;2.20;99.90
1137;DHT22;557;48.466;7.950;2022-12-10T11:30:48;2.20;99.90
1137;DHT22;557;48.466;7.950;2022-12-10T11:33:46;2.20;99.90
1137;DHT22;557;48.466;7.950;2022-12-10T11:36:37;2.20;99.90
1137;DHT22;557;48.466;7.950;2022-12-10T11:39:33;2.20;99.90
1137;DHT22;557;48.466;7.950;2022-12-10T11:42:24;2.20;99.90
1137;DHT22;557;48.466;7.950;2022-12-10T11:45:18;2.20;99.90
1137;DHT22;557;48.466;7.950;2022-12-10T11:48:14;2.20;99.90
1137;DHT22;557;48.466;7.950;2022-12-10T11:51:07;2.20;99.90
1137;DHT22;557;48.466;7.950;2022-12-10T11:54:04;2.20;99.90
1137;DHT22;557;48.466;7.950;2022-12-10T11:56:58;2.10;99.90
1137;DHT22;557;48.466;7.950;2022-12-10T11:59:53;2.20;99.90
1137;DHT22;557;48.466;7.950;2022-12-10T12:03:00;2.20;99.90
1137;DHT22;557;48.466;7.950;2022-12-10T12:06:09;2.20;99.90
1137;DHT22;557;48.466;7.950;2022-12-10T12:09:05;2.20;99.90
1137;DHT22;557;48.466;7.950;2022-12-10T12:12:03;2.20;99.90
1137;DHT22;557;48.466;7.950;2022-12-10T12:14:55;2.10;99.90
1137;DHT22;557;48.466;7.950;2022-12-10T12:17:45;2.20;99.90
1137;DHT22;557;48.466;7.950;2022-12-10T12:20:33;2.10;99.90
1137;DHT22;557;48.466;7.950;2022-12-10T12:23:24;2.10;99.90
1137;DHT22;557;48.466;7.950;2022-12-10T12:26:15;2.10;99.90
1137;DHT22;557;48.466;7.950;2022-12-10T12:29:12;2.10;99.90
1137;DHT22;557;48.466;7.950;2022-12-10T12:32:02;2.10;99.90
1137;DHT22;557;48.466;7.950;2022-12-10T12:34:51;2.10;99.90
1137;DHT22;557;48.466;7.950;2022-12-10T12:37:41;2.10;99.90
1137;DHT22;557;48.466;7.950;2022-12-10T12:40:35;2.10;99.90
1137;DHT22;557;48.466;7.950;2022-12-10T12:43:31;2.20;99.90
1137;DHT22;557;48.466;7.950;2022-12-10T12:46:26;2.20;99.90
1137;DHT22;557;48.466;7.950;2022-12-10T12:49:21;2.10;99.90
1137;DHT22;557;48.466;7.950;2022-12-10T12:52:24;2.10;99.90
1137;DHT22;557;48.466;7.950;2022-12-10T12:55:15;2.10;99.90
1137;DHT22;557;48.466;7.950;2022-12-10T12:58:13;2.10;99.90
1137;DHT22;557;48.466;7.950;2022-12-10T13:01:08;2.00;99.90
1137;DHT22;557;48.466;7.950;2022-12-10T13:04:12;2.00;99.90
1137;DHT22;557;48.466;7.950;2022-12-10T13:07:31;2.10;99.90
1137;DHT22;557;48.466;7.950;2022-12-10T13:10:26;2.00;99.90
1137;DHT22;557;48.466;7.950;2022-12-10T13:13:35;2.00;99.90
1137;DHT22;557;48.466;7.950;2022-12-10T13:16:47;2.00;99.90
1137;DHT22;557;48.466;7.950;2022-12-10T13:19:33;2.00;99.90
1137;DHT22;557;48.466;7.950;2022-12-10T13:22:42;2.00;99.90
1137;DHT22;557;48.466;7.950;2022-12-10T13:25:41;2.00;99.90
1137;DHT22;557;48.466;7.950;2022-12-10T13:28:30;2.00;99.90
1137;DHT22;557;48.466;7.950;2022-12-10T13:31:35;2.00;99.90
1137;DHT22;557;48.466;7.950;2022-12-10T13:34:29;1.90;99.90
1137;DHT22;557;48.466;7.950;2022-12-10T13:37:27;1.90;99.90
1137;DHT22;557;48.466;7.950;2022-12-10T13:40:24;2.00;99.90
1137;DHT22;557;48.466;7.950;2022-12-10T13:43:25;2.00;99.90
1137;DHT22;557;48.466;7.950;2022-12-10T13:46:32;2.00;99.90
1137;DHT22;557;48.466;7.950;2022-12-10T13:49:22;2.00;99.90
1137;DHT22;557;48.466;7.950;2022-12-10T13:52:13;2.10;99.90
1137;DHT22;557;48.466;7.950;2022-12-10T13:55:09;2.10;99.90
1137;DHT22;557;48.466;7.950;2022-12-10T14:01:17;2.00;99.90
1137;DHT22;557;48.466;7.950;2022-12-10T14:04:31;2.10;99.90
1137;DHT22;557;48.466;7.950;2022-12-10T14:07:20;2.10;99.90
1137;DHT22;557;48.466;7.950;2022-12-10T14:10:10;2.00;99.90
1137;DHT22;557;48.466;7.950;2022-12-10T14:12:59;2.00;99.90
1137;DHT22;557;48.466;7.950;2022-12-10T14:15:52;2.00;99.90
1137;DHT22;557;48.466;7.950;2022-12-10T14:18:41;2.00;99.90
1137;DHT22;557;48.466;7.950;2022-12-10T14:21:32;2.00;99.90
1137;DHT22;557;48.466;7.950;2022-12-10T14:24:29;2.00;99.90
1137;DHT22;557;48.466;7.950;2022-12-10T14:27:17;2.00;99.90
1137;DHT22;557;48.466;7.950;2022-12-10T14:30:05;2.00;99.90
1137;DHT22;557;48.466;7.950;2022-12-10T14:32:54;2.00;99.90
1137;DHT22;557;48.466;7.950;2022-12-10T14:35:41;2.00;99.90
1137;DHT22;557;48.466;7.950;2022-12-10T14:38:31;1.90;99.90
1137;DHT22;557;48.466;7.950;2022-12-10T14:41:21;2.00;99.90
1137;DHT22;557;48.466;7.950;2022-12-10T14:44:13;1.90;99.90
1137;DHT22;557;48.466;7.950;2022-12-10T14:47:05;1.90;99.90
1137;DHT22;557;48.466;7.950;2022-12-10T14:49:54;1.90;99.90
1137;DHT22;557;48.466;7.950;2022-12-10T14:52:41;2.00;99.90
1137;DHT22;557;48.466;7.950;2022-12-10T14:55:29;1.90;99.90
1137;DHT22;557;48.466;7.950;2022-12-10T14:58:18;1.90;99.90
1137;DHT22;557;48.466;7.950;2022-12-10T15:01:04;1.90;99.90
1137;DHT22;557;48.466;7.950;2022-12-10T15:03:52;1.90;99.90
1137;DHT22;557;48.466;7.950;2022-12-10T15:06:38;1.90;99.90
1137;DHT22;557;48.466;7.950;2022-12-10T15:09:25;1.90;99.90
1137;DHT22;557;48.466;7.950;2022-12-10T15:12:24;1.90;99.90
1137;DHT22;557;48.466;7.950;2022-12-10T15:15:15;2.00;99.90
1137;DHT22;557;48.466;7.950;2022-12-10T15:18:08;1.90;99.90
1137;DHT22;557;48.466;7.950;2022-12-10T15:21:04;1.90;99.90
1137;DHT22;557;48.466;7.950;2022-12-10T15:23:52;1.90;99.90
1137;DHT22;557;48.466;7.950;2022-12-10T15:26:52;1.90;99.90
1137;DHT22;557;48.466;7.950;2022-12-10T15:29:39;1.90;99.90
1137;DHT22;557;48.466;7.950;2022-12-10T15:32:26;1.80;99.90
1137;DHT22;557;48.466;7.950;2022-12-10T15:35:14;1.80;99.90
1137;DHT22;557;48.466;7.950;2022-12-10T15:38:00;1.80;99.90
1137;DHT22;557;48.466;7.950;2022-12-10T15:40:45;1.80;99.90
1137;DHT22;557;48.466;7.950;2022-12-10T15:43:30;1.80;99.90
1137;DHT22;557;48.466;7.950;2022-12-10T15:46:17;1.70;99.90
1137;DHT22;557;48.466;7.950;2022-12-10T15:49:03;1.70;99.90
1137;DHT22;557;48.466;7.950;2022-12-10T15:51:49;1.70;99.90
1137;DHT22;557;48.466;7.950;2022-12-10T15:54:36;1.70;99.90
1137;DHT22;557;48.466;7.950;2022-12-10T15:57:24;1.60;99.90
1137;DHT22;557;48.466;7.950;2022-12-10T16:00:16;1.60;99.90
1137;DHT22;557;48.466;7.950;2022-12-10T16:03:05;1.70;99.90
1137;DHT22;557;48.466;7.950;2022-12-10T16:05:55;1.70;99.90
1137;DHT22;557;48.466;7.950;2022-12-10T16:08:45;1.70;99.90
1137;DHT22;557;48.466;7.950;2022-12-10T16:11:31;1.70;99.90
1137;DHT22;557;48.466;7.950;2022-12-10T16:14:17;1.70;99.90
1137;DHT22;557;48.466;7.950;2022-12-10T16:17:02;1.70;99.90
1137;DHT22;557;48.466;7.950;2022-12-10T16:19:49;1.70;99.90
1137;DHT22;557;48.466;7.950;2022-12-10T16:22:35;1.70;99.90
1137;DHT22;557;48.466;7.950;2022-12-10T16:25:21;1.80;99.90
1137;DHT22;557;48.466;7.950;2022-12-10T16:28:07;1.70;99.90
1137;DHT22;557;48.466;7.950;2022-12-10T16:30:55;1.70;99.90
1137;DHT22;557;48.466;7.950;2022-12-10T16:33:41;1.70;99.90
1137;DHT22;557;48.466;7.950;2022-12-10T16:36:28;1.70;99.90
1137;DHT22;557;48.466;7.950;2022-12-10T16:39:15;1.70;99.90
1137;DHT22;557;48.466;7.950;2022-12-10T16:42:01;1.70;99.90
1137;DHT22;557;48.466;7.950;2022-12-10T16:44:46;1.70;99.90
1137;DHT22;557;48.466;7.950;2022-12-10T16:47:32;1.60;99.90
1137;DHT22;557;48.466;7.950;2022-12-10T16:50:18;1.60;99.90
1137;DHT22;557;48.466;7.950;2022-12-10T16:53:14;1.50;99.90
1137;DHT22;557;48.466;7.950;2022-12-10T16:56:00;1.50;99.90
1137;DHT22;557;48.466;7.950;2022-12-10T16:58:45;1.50;99.90
1137;DHT22;557;48.466;7.950;2022-12-10T17:01:32;1.60;99.90
1137;DHT22;557;48.466;7.950;2022-12-10T17:04:19;1.60;99.90
1137;DHT22;557;48.466;7.950;2022-12-10T17:07:04;1.70;99.90
1137;DHT22;557;48.466;7.950;2022-12-10T17:09:51;1.70;99.90
1137;DHT22;557;48.466;7.950;2022-12-10T17:12:37;1.80;99.90
1137;DHT22;557;48.466;7.950;2022-12-10T17:15:23;1.80;99.90
1137;DHT22;557;48.466;7.950;2022-12-10T17:18:11;1.70;99.90
1137;DHT22;557;48.466;7.950;2022-12-10T17:20:58;1.70;99.90
1137;DHT22;557;48.466;7.950;2022-12-10T17:23:44;1.60;99.90
1137;DHT22;557;48.466;7.950;2022-12-10T17:26:33;1.60;99.90
1137;DHT22;557;48.466;7.950;2022-12-10T17:29:24;1.60;99.90
1137;DHT22;557;48.466;7.950;2022-12-10T17:32:13;1.60;99.90
1137;DHT22;557;48.466;7.950;2022-12-10T17:34:58;1.70;99.90
1137;DHT22;557;48.466;7.950;2022-12-10T17:37:44;1.60;99.90
1137;DHT22;557;48.466;7.950;2022-12-10T17:40:31;1.70;99.90
1137;DHT22;557;48.466;7.950;2022-12-10T17:43:19;1.70;99.90
1137;DHT22;557;48.466;7.950;2022-12-10T17:46:08;1.60;99.90
1137;DHT22;557;48.466;7.950;2022-12-10T17:48:54;1.50;99.90
1137;DHT22;557;48.466;7.950;2022-12-10T17:51:40;1.50;99.90
1137;DHT22;557;48.466;7.950;2022-12-10T17:54:29;1.50;99.90
1137;DHT22;557;48.466;7.950;2022-12-10T17:57:18;1.50;99.90
1137;DHT22;557;48.466;7.950;2022-12-10T18:00:10;1.60;99.90
1137;DHT22;557;48.466;7.950;2022-12-10T18:02:57;1.50;99.90
1137;DHT22;557;48.466;7.950;2022-12-10T18:05:43;1.60;99.90
1137;DHT22;557;48.466;7.950;2022-12-10T18:08:30;1.60;99.90
1137;DHT22;557;48.466;7.950;2022-12-10T18:11:17;1.50;99.90
1137;DHT22;557;48.466;7.950;2022-12-10T18:14:03;1.60;99.90
1137;DHT22;557;48.466;7.950;2022-12-10T18:16:50;1.60;99.90
1137;DHT22;557;48.466;7.950;2022-12-10T18:19:35;1.50;99.90
1137;DHT22;557;48.466;7.950;2022-12-10T18:22:21;1.50;99.90
1137;DHT22;557;48.466;7.950;2022-12-10T18:25:07;1.40;99.90
1137;DHT22;557;48.466;7.950;2022-12-10T18:27:54;1.40;99.90
1137;DHT22;557;48.466;7.950;2022-12-10T18:30:40;1.40;99.90
1137;DHT22;557;48.466;7.950;2022-12-10T18:33:27;1.50;99.90
1137;DHT22;557;48.466;7.950;2022-12-10T18:36:15;1.50;99.90
1137;DHT22;557;48.466;7.950;2022-12-10T18:39:05;1.50;99.90
1137;DHT22;557;48.466;7.950;2022-12-10T18:41:51;1.50;99.90
1137;DHT22;557;48.466;7.950;2022-12-10T18:44:37;1.50;99.90
1137;DHT22;557;48.466;7.950;2022-12-10T18:47:24;1.50;99.90
1137;DHT22;557;48.466;7.950;2022-12-10T18:50:19;1.50;99.90
1137;DHT22;557;48.466;7.950;2022-12-10T18:53:04;1.40;99.90
1137;DHT22;557;48.466;7.950;2022-12-10T18:55:50;1.40;99.90
1137;DHT22;557;48.466;7.950;2022-12-10T18:58:36;1.40;99.90
1137;DHT22;557;48.466;7.950;2022-12-10T19:01:22;1.30;99.90
1137;DHT22;557;48.466;7.950;2022-12-10T19:04:08;1.30;99.90
1137;DHT22;557;48.466;7.950;2022-12-10T19:06:55;1.30;99.90
1137;DHT22;557;48.466;7.950;2022-12-10T19:09:42;1.30;99.90
1137;DHT22;557;48.466;7.950;2022-12-10T19:12:28;1.30;99.90
1137;DHT22;557;48.466;7.950;2022-12-10T19:15:16;1.40;99.90